createdAt,value
2023-05-25T00:00:25.216Z,5.30
2023-05-25T00:05:30.170Z,4.35
2023-05-25T00:10:33.753Z,5.90
2023-05-25T00:15:37.440Z,4.82
2023-05-25T00:20:42.390Z,5.60
2023-05-25T00:25:46.315Z,4.60
2023-05-25T00:30:50.144Z,5.10
2023-05-25T00:35:55.239Z,5.20
2023-05-25T00:40:59.332Z,5.15
2023-05-25T00:46:04.327Z,4.78
2023-05-25T00:51:09.434Z,4.97
2023-05-25T00:56:20.544Z,4.38
2023-05-25T01:01:25.205Z,5.03
2023-05-25T01:06:33.813Z,4.85
2023-05-25T01:11:40.474Z,5.50
2023-05-25T01:16:45.008Z,4.68
2023-05-25T01:22:02.036Z,5.57
2023-05-25T01:27:10.270Z,5.95
2023-05-25T01:32:15.001Z,5.95
2023-05-25T01:37:23.427Z,5.93
2023-05-25T01:42:27.200Z,6.13
2023-05-25T01:47:34.639Z,6.63
2023-05-25T01:52:43.128Z,6.50
2023-05-25T01:57:52.503Z,5.78
2023-05-25T02:02:56.595Z,6.30
2023-05-25T02:08:01.954Z,7.25
2023-05-25T02:13:08.954Z,6.28
2023-05-25T02:18:14.084Z,6.15
2023-05-25T02:23:19.509Z,6.95
2023-05-25T02:28:23.297Z,6.72
2023-05-25T02:33:27.095Z,7.57
2023-05-25T02:38:32.024Z,7.80
2023-05-25T02:43:36.155Z,7.43
2023-05-25T02:48:39.767Z,7.45
2023-05-25T02:53:45.969Z,7.63
2023-05-25T02:58:49.527Z,6.85
2023-05-25T03:04:03.717Z,8.48
2023-05-25T03:09:13.612Z,8.20
2023-05-25T03:14:17.962Z,7.93
2023-05-25T03:19:28.544Z,7.32
2023-05-25T03:24:33.540Z,7.25
2023-05-25T03:29:39.565Z,7.10
2023-05-25T03:34:45.362Z,7.72
2023-05-25T03:39:53.650Z,6.50
2023-05-25T03:44:57.538Z,7.70
2023-05-25T03:50:01.348Z,7.15
2023-05-25T03:55:07.369Z,7.63
2023-05-25T04:00:12.055Z,7.70
2023-05-25T04:05:19.615Z,7.20
2023-05-25T04:10:24.861Z,7.15
2023-05-25T04:15:28.563Z,8.38
2023-05-25T04:20:47.846Z,8.43
2023-05-25T04:25:54.277Z,7.50
2023-05-25T04:30:58.672Z,6.97
2023-05-25T04:36:34.598Z,7.93
2023-05-25T04:41:43.107Z,8.13
2023-05-25T04:46:47.441Z,8.48
2023-05-25T04:52:02.785Z,8.50
2023-05-25T04:57:09.565Z,8.10
2023-05-25T05:02:13.264Z,10.32
2023-05-25T05:07:17.001Z,9.05
2023-05-25T05:12:22.100Z,8.40
2023-05-25T05:17:29.491Z,9.07
2023-05-25T05:22:35.182Z,10.90
2023-05-25T05:27:41.877Z,10.27
2023-05-25T05:32:53.114Z,9.50
2023-05-25T05:37:58.379Z,10.52
2023-05-25T05:43:03.056Z,10.63
2023-05-25T05:48:10.232Z,10.43
2023-05-25T05:53:13.899Z,11.52
2023-05-25T05:58:19.041Z,10.50
2023-05-25T06:03:23.108Z,12.85
2023-05-25T06:08:27.003Z,12.25
2023-05-25T06:13:32.345Z,10.95
2023-05-25T06:18:35.957Z,12.85
2023-05-25T06:23:39.728Z,13.95
2023-05-25T06:28:44.870Z,13.48
2023-05-25T06:33:48.718Z,12.90
2023-05-25T06:38:52.606Z,14.05
2023-05-25T06:43:57.845Z,12.40
2023-05-25T06:49:08.989Z,11.98
2023-05-25T06:54:15.371Z,13.45
2023-05-25T06:59:20.494Z,13.57
2023-05-25T07:04:23.791Z,12.57
2023-05-25T07:09:27.381Z,14.98
2023-05-25T07:14:32.737Z,13.18
2023-05-25T07:19:36.335Z,12.80
2023-05-25T07:24:40.083Z,14.27
2023-05-25T07:29:45.096Z,11.45
2023-05-25T07:34:48.760Z,13.35
2023-05-25T07:39:52.436Z,13.10
2023-05-25T07:44:57.394Z,12.50
2023-05-25T07:50:01.085Z,11.75
2023-05-25T07:55:04.736Z,14.35
2023-05-25T08:00:12.110Z,9.35
2023-05-25T08:05:18.563Z,9.80
2023-05-25T08:10:23.819Z,7.65
2023-05-25T08:15:29.054Z,7.15
2023-05-25T08:25:36.715Z,10.73
2023-05-25T08:30:41.799Z,7.75
2023-05-25T08:35:45.790Z,8.73
2023-05-25T08:41:01.334Z,7.03
2023-05-25T08:46:08.116Z,5.65
2023-05-25T08:51:14.963Z,5.63
2023-05-25T08:56:21.952Z,5.85
2023-05-25T09:01:30.497Z,5.45
2023-05-25T09:06:37.137Z,6.93
2023-05-25T09:11:44.280Z,8.68
2023-05-25T09:16:51.830Z,5.22
2023-05-25T09:22:03.253Z,4.93
2023-05-25T09:27:19.582Z,4.70
2023-05-25T09:32:24.417Z,3.63
2023-05-25T09:37:28.565Z,3.70
2023-05-25T09:42:32.541Z,4.22
2023-05-25T09:47:38.257Z,4.53
2023-05-25T09:52:42.549Z,4.82
2023-05-25T09:57:46.364Z,5.00
2023-05-25T10:02:51.186Z,5.28
2023-05-25T10:07:56.188Z,5.63
2023-05-25T10:13:01.001Z,4.28
2023-05-25T10:18:08.080Z,4.28
2023-05-25T10:23:13.995Z,4.65
2023-05-25T10:28:23.416Z,5.75
2023-05-25T10:38:38.984Z,4.47
2023-05-25T10:43:43.086Z,5.80
2023-05-25T10:48:50.522Z,4.38
2023-05-25T10:54:02.167Z,5.35
2023-05-25T10:59:06.685Z,5.40
2023-05-25T11:04:18.644Z,3.80
2023-05-25T11:09:29.254Z,4.47
2023-05-25T11:14:34.139Z,5.07
2023-05-25T11:19:43.762Z,5.40
2023-05-25T11:24:48.133Z,5.00
2023-05-25T11:29:52.789Z,4.47
2023-05-25T11:34:59.936Z,4.45
2023-05-25T11:40:09.649Z,3.70
2023-05-25T11:45:15.693Z,3.63
2023-05-25T11:50:20.488Z,4.00
2023-05-25T11:55:24.294Z,3.72
2023-05-25T12:00:29.161Z,3.30
2023-05-25T12:05:41.140Z,4.25
2023-05-25T12:10:52.646Z,4.25
2023-05-25T12:15:58.064Z,4.07
2023-05-25T12:21:08.409Z,4.10
2023-05-25T12:26:13.367Z,3.90
2023-05-25T12:31:24.180Z,4.07
2023-05-25T12:36:43.389Z,3.97
2023-05-25T12:41:49.434Z,3.45
2023-05-25T12:46:57.696Z,3.58
2023-05-25T12:52:03.922Z,3.58
2023-05-25T12:57:08.401Z,3.97
2023-05-25T13:02:12.795Z,4.87
2023-05-25T13:07:17.941Z,3.37
2023-05-25T13:12:21.578Z,4.47
2023-05-25T13:17:25.270Z,4.43
2023-05-25T13:22:30.328Z,4.00
2023-05-25T13:27:33.983Z,3.45
2023-05-25T13:32:37.640Z,3.88
2023-05-25T13:37:42.674Z,3.25
2023-05-25T13:42:45.938Z,3.97
2023-05-25T13:47:50.483Z,4.28
2023-05-25T13:52:55.651Z,4.18
2023-05-25T13:57:58.928Z,4.20
2023-05-25T14:03:02.731Z,3.72
2023-05-25T14:08:08.078Z,4.10
2023-05-25T14:18:15.371Z,3.80
2023-05-25T14:23:21.595Z,4.22
2023-05-25T14:28:25.159Z,4.18
2023-05-25T14:33:30.530Z,4.18
2023-05-25T14:38:36.389Z,3.83
2023-05-25T14:43:39.890Z,4.18
2023-05-25T14:48:43.685Z,4.15
2023-05-25T14:53:48.626Z,4.95
2023-05-25T14:58:52.067Z,4.57
2023-05-25T15:03:55.745Z,4.10
2023-05-25T15:09:00.900Z,3.85
2023-05-25T15:19:10.680Z,3.50
2023-05-25T15:24:17.262Z,4.53
2023-05-25T15:34:24.214Z,3.33
2023-05-25T15:39:29.294Z,4.07
2023-05-25T15:44:32.926Z,5.30
2023-05-25T15:49:37.470Z,4.00
2023-05-25T15:54:42.516Z,3.97
2023-05-25T15:59:45.930Z,3.28
2023-05-25T16:04:49.499Z,3.70
2023-05-25T16:09:54.613Z,3.78
2023-05-25T16:14:58.897Z,5.35
2023-05-25T16:20:02.711Z,3.45
2023-05-25T16:25:08.869Z,3.72
2023-05-25T16:30:13.709Z,4.10
2023-05-25T16:40:22.652Z,4.03
2023-05-25T16:45:26.938Z,4.38
2023-05-25T16:50:31.076Z,3.83
2023-05-25T16:55:36.049Z,3.97
2023-05-25T17:05:43.012Z,4.10
2023-05-25T17:10:50.236Z,4.22
2023-05-25T17:15:54.220Z,3.60
2023-05-25T17:20:57.847Z,4.32
2023-05-25T17:26:02.803Z,4.32
2023-05-25T17:31:06.322Z,4.80
2023-05-25T17:36:09.857Z,5.63
2023-05-25T17:41:14.841Z,3.88
2023-05-25T17:46:18.296Z,4.20
2023-05-25T17:51:22.287Z,4.15
2023-05-25T17:56:27.233Z,4.43
2023-05-25T18:01:30.638Z,3.53
2023-05-25T18:06:34.071Z,4.10
2023-05-25T18:11:38.793Z,3.53
2023-05-25T18:16:44.526Z,3.25
2023-05-25T18:21:47.806Z,3.92
2023-05-25T18:26:52.443Z,2.90
2023-05-25T18:31:56.077Z,3.92
2023-05-25T18:36:59.803Z,3.47
2023-05-25T18:42:04.757Z,3.20
2023-05-25T18:47:08.518Z,2.67
2023-05-25T18:52:12.155Z,2.88
2023-05-25T18:57:17.119Z,4.07
2023-05-25T19:02:21.240Z,3.90
2023-05-25T19:07:24.640Z,3.17
2023-05-25T19:12:30.061Z,3.92
2023-05-25T19:17:33.863Z,3.65
2023-05-25T19:22:37.515Z,3.90
2023-05-25T19:27:46.304Z,4.13
2023-05-25T19:32:50.221Z,4.00
2023-05-25T19:37:53.891Z,3.88
2023-05-25T19:42:58.542Z,4.10
2023-05-25T19:48:01.983Z,4.43
2023-05-25T19:53:05.664Z,4.18
2023-05-25T19:58:10.305Z,4.68
2023-05-25T20:03:16.119Z,4.03
2023-05-25T20:08:19.464Z,5.07
2023-05-25T20:13:24.139Z,4.55
2023-05-25T20:18:27.425Z,5.23
2023-05-25T20:23:30.737Z,5.32
2023-05-25T20:28:35.307Z,5.45
2023-05-25T20:33:40.035Z,4.72
2023-05-25T20:38:45.144Z,5.28
2023-05-25T20:43:50.200Z,5.10
2023-05-25T20:53:58.091Z,5.53
2023-05-25T20:59:03.112Z,4.75
2023-05-25T21:04:06.885Z,5.60
2023-05-25T21:09:10.597Z,5.88
2023-05-25T21:14:15.619Z,5.07
2023-05-25T21:19:19.284Z,5.57
2023-05-25T21:24:22.954Z,5.35
2023-05-25T21:29:28.138Z,4.78
2023-05-25T21:34:31.691Z,5.32
2023-05-25T21:39:35.286Z,5.18
2023-05-25T21:44:40.590Z,5.13
2023-05-25T21:49:44.180Z,5.22
2023-05-25T21:54:54.957Z,4.95
2023-05-25T21:59:59.971Z,5.53
2023-05-25T22:05:03.598Z,5.30
2023-05-25T22:10:08.423Z,5.13
2023-05-25T22:15:13.466Z,5.20
2023-05-25T22:20:17.740Z,6.18
2023-05-25T22:25:21.074Z,6.00
2023-05-25T22:30:25.980Z,5.85
2023-05-25T22:35:29.588Z,5.83
2023-05-25T22:40:33.128Z,6.35
2023-05-25T22:45:38.147Z,5.97
2023-05-25T22:50:41.673Z,6.40
2023-05-25T22:55:47.164Z,6.57
2023-05-25T23:00:52.010Z,6.10
2023-05-25T23:05:55.589Z,6.97
2023-05-25T23:10:59.264Z,6.40
2023-05-25T23:16:04.475Z,11.85
2023-05-25T23:21:08.289Z,8.15
2023-05-25T23:26:11.999Z,6.30
2023-05-25T23:31:17.046Z,6.35
2023-05-25T23:36:21.234Z,8.85
2023-05-25T23:41:25.781Z,8.70
2023-05-25T23:46:31.896Z,6.15
2023-05-25T23:51:35.184Z,6.15
2023-05-25T23:56:38.410Z,7.55
